Maersk Lirquen — VRKB8 — position and weather

sailwx.info

Track history (hours):
 
Tides and Currents Weather Stations Pressure Air Temp Water Temp Dewpoint Dewpoint Depression Visibility Wind Speed Wind Dir Waves Ship Positions

Maersk Lirquen

Last reported at 2014-Sep-02 11:17 UTC. Time now 2014-Sep-03 00:07 UTC.
Position S 34°48' W 057°28'.

Length 300 m; draft 9.9 m.

Type: Cargo ship. MMSI: 477423500.

Date/timePositionNaut miles runAvg speedWind from/ knotsBaromVisibWave heightAir tempDewpointWater temp
2014-Sep-02 11:17S 34°48' W 057°28'912.9
2014-Sep-02 10:33S 34°45' W 057°39'1110.6
2014-Sep-02 09:33S 34°43' W 057°52'1413.7
2014-Sep-02 08:33S 34°38' W 058°07'1211.6
2014-Sep-02 07:33S 34°36' W 058°21'1 0.2
2014-Sep-02 01:13S 34°35' W 058°22'0 0.0
2014-Sep-01 05:04S 34°35' W 058°22'1 1.3
2014-Sep-01 04:30S 34°35' W 058°22'7 6.9
2014-Sep-01 03:33S 34°37' W 058°14'1313.3
2014-Sep-01 02:33S 34°41' W 057°59'1211.7
2014-Sep-01 01:34S 34°44' W 057°45'1515.1
2014-Sep-01 00:33S 34°48' W 057°27'288 9.1
2014-Aug-30 17:00S 33°12' W 052°00'4916.3 060 / 201018.1 5.4 1.516.012.417.0
2014-Aug-30 14:00S 32°30' W 051°30'   070 / 141020.310.8 2.016.013.317.0
2014-Aug-26 21:24S 24°09' W 046°24'1113.0
2014-Aug-26 20:34S 23°60' W 046°19'5 4.3
2014-Aug-26 19:30S 23°55' W 046°21'0 0.0
2014-Aug-26 11:19S 23°55' W 046°21'0 0.0
2014-Aug-26 07:31S 23°55' W 046°21'0 0.0
2014-Aug-26 06:16S 23°55' W 046°21'0 0.0
2014-Aug-26 01:13S 23°55' W 046°21'0 0.0
2014-Aug-25 21:28S 23°55' W 046°21'4 4.9
2014-Aug-25 20:33S 23°58' W 046°17'8 7.9
2014-Aug-25 19:33S 24°05' W 046°22'1313.2
2014-Aug-25 18:33S 24°15' W 046°14'8518.6
2014-Aug-25 14:00S 24°00' W 044°42'14119.0 030 / 151014.310.8 2.024.519.125.0
2014-Aug-25 06:33S 23°15' W 042°16'1918.8
2014-Aug-25 05:33S 23°07' W 041°57'24419.4
2014-Aug-24 17:00S 20°18' W 038°48'   020 / 201018.0 5.4 1.025.020.429.0
Track history (hours):
 
Tides and Currents Weather Stations Pressure Air Temp Water Temp Dewpoint Dewpoint Depression Visibility Wind Speed Wind Dir Waves Ship Positions

Maersk Lirquen

Last reported at 2014-Sep-02 11:17 UTC. Time now 2014-Sep-03 00:07 UTC.
Position S 34°48' W 057°28'.

Length 300 m; draft 9.9 m.

Type: Cargo ship. MMSI: 477423500.

Date/timePositionNaut miles runAvg speedWind from/ knotsBaromVisibWave heightAir tempDewpointWater temp
2014-Sep-02 11:17S 34°48' W 057°28'912.9
2014-Sep-02 10:33S 34°45' W 057°39'1110.6
2014-Sep-02 09:33S 34°43' W 057°52'1413.7
2014-Sep-02 08:33S 34°38' W 058°07'1211.6
2014-Sep-02 07:33S 34°36' W 058°21'1 0.2
2014-Sep-02 01:13S 34°35' W 058°22'0 0.0
2014-Sep-01 05:04S 34°35' W 058°22'1 1.3
2014-Sep-01 04:30S 34°35' W 058°22'7 6.9
2014-Sep-01 03:33S 34°37' W 058°14'1313.3
2014-Sep-01 02:33S 34°41' W 057°59'1211.7
2014-Sep-01 01:34S 34°44' W 057°45'1515.1
2014-Sep-01 00:33S 34°48' W 057°27'288 9.1
2014-Aug-30 17:00S 33°12' W 052°00'4916.3 060 / 201018.1 5.4 1.516.012.417.0
2014-Aug-30 14:00S 32°30' W 051°30'   070 / 141020.310.8 2.016.013.317.0
2014-Aug-26 21:24S 24°09' W 046°24'1113.0
2014-Aug-26 20:34S 23°60' W 046°19'5 4.3
2014-Aug-26 19:30S 23°55' W 046°21'0 0.0
2014-Aug-26 11:19S 23°55' W 046°21'0 0.0
2014-Aug-26 07:31S 23°55' W 046°21'0 0.0
2014-Aug-26 06:16S 23°55' W 046°21'0 0.0
2014-Aug-26 01:13S 23°55' W 046°21'0 0.0
2014-Aug-25 21:28S 23°55' W 046°21'4 4.9
2014-Aug-25 20:33S 23°58' W 046°17'8 7.9
2014-Aug-25 19:33S 24°05' W 046°22'1313.2
2014-Aug-25 18:33S 24°15' W 046°14'8518.6
2014-Aug-25 14:00S 24°00' W 044°42'14119.0 030 / 151014.310.8 2.024.519.125.0
2014-Aug-25 06:33S 23°15' W 042°16'1918.8
2014-Aug-25 05:33S 23°07' W 041°57'24419.4
2014-Aug-24 17:00S 20°18' W 038°48'   020 / 201018.0 5.4 1.025.020.429.0

Dump ship's entire track history